sensor_id;sensor_type;location;lat;lon;timestamp;temperature;humidity
1888;DHT22;944;51.574;6.980;2023-03-01T06:02:25;-1.70;99.90
1888;DHT22;944;51.574;6.980;2023-03-01T06:50:41;-1.50;99.90
1888;DHT22;944;51.574;6.980;2023-03-01T07:47:31;1.00;99.90
1888;DHT22;944;51.574;6.980;2023-03-01T07:50:50;1.20;99.90
1888;DHT22;944;51.574;6.980;2023-03-01T07:57:09;1.20;99.90
1888;DHT22;944;51.574;6.980;2023-03-01T07:59:58;1.40;99.90
1888;DHT22;944;51.574;6.980;2023-03-01T08:02:40;1.30;99.90
1888;DHT22;944;51.574;6.980;2023-03-01T08:09:04;1.10;99.90
1888;DHT22;944;51.574;6.980;2023-03-01T08:11:35;1.30;99.90
1888;DHT22;944;51.574;6.980;2023-03-01T08:14:19;1.40;99.90
1888;DHT22;944;51.574;6.980;2023-03-01T08:16:53;1.50;99.90
1888;DHT22;944;51.574;6.980;2023-03-01T08:19:35;1.80;99.90
1888;DHT22;944;51.574;6.980;2023-03-01T08:22:03;1.90;99.90
1888;DHT22;944;51.574;6.980;2023-03-01T08:24:30;2.10;99.90
1888;DHT22;944;51.574;6.980;2023-03-01T08:27:02;2.20;99.90
1888;DHT22;944;51.574;6.980;2023-03-01T08:29:40;2.50;99.90
1888;DHT22;944;51.574;6.980;2023-03-01T08:32:14;2.70;99.90
1888;DHT22;944;51.574;6.980;2023-03-01T08:34:42;2.90;99.90
1888;DHT22;944;51.574;6.980;2023-03-01T08:37:12;3.10;99.90
1888;DHT22;944;51.574;6.980;2023-03-01T08:39:39;3.20;99.90
1888;DHT22;944;51.574;6.980;2023-03-01T08:45:24;3.10;99.90
1888;DHT22;944;51.574;6.980;2023-03-01T08:47:52;3.10;99.90
1888;DHT22;944;51.574;6.980;2023-03-01T08:50:21;3.10;99.90
1888;DHT22;944;51.574;6.980;2023-03-01T08:52:54;3.40;99.90
1888;DHT22;944;51.574;6.980;2023-03-01T08:55:21;3.50;99.90
1888;DHT22;944;51.574;6.980;2023-03-01T08:57:51;3.70;1.00
1888;DHT22;944;51.574;6.980;2023-03-01T09:00:24;3.50;99.90
1888;DHT22;944;51.574;6.980;2023-03-01T09:02:51;3.20;1.00
1888;DHT22;944;51.574;6.980;2023-03-01T09:08:40;3.60;1.00
1888;DHT22;944;51.574;6.980;2023-03-01T09:11:13;3.70;99.90
1888;DHT22;944;51.574;6.980;2023-03-01T09:13:42;3.30;99.90
1888;DHT22;944;51.574;6.980;2023-03-01T09:16:10;3.10;99.90
1888;DHT22;944;51.574;6.980;2023-03-01T09:18:38;2.90;99.90
1888;DHT22;944;51.574;6.980;2023-03-01T09:21:07;2.80;99.90
1888;DHT22;944;51.574;6.980;2023-03-01T09:23:37;2.80;96.10
1888;DHT22;944;51.574;6.980;2023-03-01T09:26:05;2.80;99.90
1888;DHT22;944;51.574;6.980;2023-03-01T09:28:32;2.80;1.00
1888;DHT22;944;51.574;6.980;2023-03-01T09:34:08;2.90;1.00
1888;DHT22;944;51.574;6.980;2023-03-01T09:36:36;2.90;1.00
1888;DHT22;944;51.574;6.980;2023-03-01T09:39:05;3.00;6.70
1888;DHT22;944;51.574;6.980;2023-03-01T09:44:45;3.00;99.90
1888;DHT22;944;51.574;6.980;2023-03-01T09:47:25;3.00;99.90
1888;DHT22;944;51.574;6.980;2023-03-01T09:50:00;3.10;1.00
1888;DHT22;944;51.574;6.980;2023-03-01T09:52:34;3.10;99.90
1888;DHT22;944;51.574;6.980;2023-03-01T09:55:10;3.00;1.00
1888;DHT22;944;51.574;6.980;2023-03-01T09:58:04;3.00;99.90
1888;DHT22;944;51.574;6.980;2023-03-01T10:00:46;3.00;1.00
1888;DHT22;944;51.574;6.980;2023-03-01T10:03:17;3.10;99.90
1888;DHT22;944;51.574;6.980;2023-03-01T10:05:55;3.10;99.90
1888;DHT22;944;51.574;6.980;2023-03-01T10:11:56;3.00;99.90
1888;DHT22;944;51.574;6.980;2023-03-01T10:14:35;3.10;99.90
1888;DHT22;944;51.574;6.980;2023-03-01T10:17:24;3.20;99.90
1888;DHT22;944;51.574;6.980;2023-03-01T10:20:30;3.20;1.00
1888;DHT22;944;51.574;6.980;2023-03-01T10:23:04;3.30;99.90
1888;DHT22;944;51.574;6.980;2023-03-01T10:25:44;3.10;1.00
1888;DHT22;944;51.574;6.980;2023-03-01T10:28:25;3.20;17.40
1888;DHT22;944;51.574;6.980;2023-03-01T10:31:02;3.00;1.00
1888;DHT22;944;51.574;6.980;2023-03-01T10:33:31;3.20;1.00
1888;DHT22;944;51.574;6.980;2023-03-01T10:35:59;3.50;99.90
1888;DHT22;944;51.574;6.980;2023-03-01T10:42:20;3.40;99.90
1888;DHT22;944;51.574;6.980;2023-03-01T10:44:54;3.30;99.90
1888;DHT22;944;51.574;6.980;2023-03-01T10:47:25;3.40;74.20
1888;DHT22;944;51.574;6.980;2023-03-01T10:49:59;3.50;99.90
1888;DHT22;944;51.574;6.980;2023-03-01T10:52:58;3.50;99.90
1888;DHT22;944;51.574;6.980;2023-03-01T10:55:30;3.60;1.00
1888;DHT22;944;51.574;6.980;2023-03-01T10:58:17;3.70;99.90
1888;DHT22;944;51.574;6.980;2023-03-01T11:00:51;3.90;1.00
1888;DHT22;944;51.574;6.980;2023-03-01T11:10:42;3.80;1.00
1888;DHT22;944;51.574;6.980;2023-03-01T11:13:19;3.90;99.90
1888;DHT22;944;51.574;6.980;2023-03-01T11:16:05;4.00;1.00
1888;DHT22;944;51.574;6.980;2023-03-01T11:18:56;4.10;88.40
1888;DHT22;944;51.574;6.980;2023-03-01T11:21:52;4.20;99.90
1888;DHT22;944;51.574;6.980;2023-03-01T11:24:46;4.30;1.00
1888;DHT22;944;51.574;6.980;2023-03-01T11:27:25;4.30;99.90
1888;DHT22;944;51.574;6.980;2023-03-01T11:33:54;4.20;99.90
1888;DHT22;944;51.574;6.980;2023-03-01T11:36:31;4.20;99.90
1888;DHT22;944;51.574;6.980;2023-03-01T11:39:17;4.30;99.90
1888;DHT22;944;51.574;6.980;2023-03-01T11:42:20;4.40;99.90
1888;DHT22;944;51.574;6.980;2023-03-01T11:45:06;4.60;99.90
1888;DHT22;944;51.574;6.980;2023-03-01T11:51:31;4.40;99.90
1888;DHT22;944;51.574;6.980;2023-03-01T11:54:17;4.50;99.90
1888;DHT22;944;51.574;6.980;2023-03-01T11:57:31;4.60;99.90
1888;DHT22;944;51.574;6.980;2023-03-01T12:00:28;4.60;99.90
1888;DHT22;944;51.574;6.980;2023-03-01T12:03:39;4.90;99.90
1888;DHT22;944;51.574;6.980;2023-03-01T12:06:39;4.60;99.90
1888;DHT22;944;51.574;6.980;2023-03-01T12:10:14;4.60;99.90
1888;DHT22;944;51.574;6.980;2023-03-01T12:13:09;4.70;99.90
1888;DHT22;944;51.574;6.980;2023-03-01T12:16:17;4.70;99.90
1888;DHT22;944;51.574;6.980;2023-03-01T12:22:48;4.80;99.90
1888;DHT22;944;51.574;6.980;2023-03-01T12:33:12;5.10;99.90
1888;DHT22;944;51.574;6.980;2023-03-01T12:36:02;5.20;99.90
1888;DHT22;944;51.574;6.980;2023-03-01T12:38:42;5.10;99.90
1888;DHT22;944;51.574;6.980;2023-03-01T12:41:27;5.20;99.90
1888;DHT22;944;51.574;6.980;2023-03-01T12:44:24;5.10;99.90
1888;DHT22;944;51.574;6.980;2023-03-01T12:47:11;5.10;99.90
1888;DHT22;944;51.574;6.980;2023-03-01T12:49:49;5.10;99.90
1888;DHT22;944;51.574;6.980;2023-03-01T12:55:43;5.20;99.90
1888;DHT22;944;51.574;6.980;2023-03-01T12:58:20;5.30;99.90
1888;DHT22;944;51.574;6.980;2023-03-01T13:01:03;5.40;99.90
1888;DHT22;944;51.574;6.980;2023-03-01T13:04:20;5.40;99.90
1888;DHT22;944;51.574;6.980;2023-03-01T13:07:02;5.40;99.90
1888;DHT22;944;51.574;6.980;2023-03-01T13:09:39;5.50;99.90
1888;DHT22;944;51.574;6.980;2023-03-01T13:15:34;5.50;99.90
1888;DHT22;944;51.574;6.980;2023-03-01T13:18:04;5.50;99.90
1888;DHT22;944;51.574;6.980;2023-03-01T13:21:27;5.70;99.90
1888;DHT22;944;51.574;6.980;2023-03-01T13:24:03;5.60;99.90
1888;DHT22;944;51.574;6.980;2023-03-01T13:27:10;5.60;99.90
1888;DHT22;944;51.574;6.980;2023-03-01T13:29:50;5.70;99.90
1888;DHT22;944;51.574;6.980;2023-03-01T13:32:20;5.80;99.90
1888;DHT22;944;51.574;6.980;2023-03-01T13:34:59;5.80;99.90
1888;DHT22;944;51.574;6.980;2023-03-01T13:37:33;5.80;99.90
1888;DHT22;944;51.574;6.980;2023-03-01T13:40:07;5.80;99.90
1888;DHT22;944;51.574;6.980;2023-03-01T13:47:14;5.80;99.90
1888;DHT22;944;51.574;6.980;2023-03-01T13:53:00;5.80;99.90
1888;DHT22;944;51.574;6.980;2023-03-01T13:59:14;5.80;99.90
1888;DHT22;944;51.574;6.980;2023-03-01T14:01:52;5.80;99.90
1888;DHT22;944;51.574;6.980;2023-03-01T14:04:23;5.80;99.90
1888;DHT22;944;51.574;6.980;2023-03-01T14:07:09;5.70;99.90
1888;DHT22;944;51.574;6.980;2023-03-01T14:09:40;5.80;99.90
1888;DHT22;944;51.574;6.980;2023-03-01T14:13:08;5.80;99.90
1888;DHT22;944;51.574;6.980;2023-03-01T14:16:00;5.80;99.90
1888;DHT22;944;51.574;6.980;2023-03-01T14:18:44;5.90;99.90
1888;DHT22;944;51.574;6.980;2023-03-01T14:22:11;5.90;99.90
1888;DHT22;944;51.574;6.980;2023-03-01T14:24:46;5.90;99.90
1888;DHT22;944;51.574;6.980;2023-03-01T14:27:16;5.80;99.90
1888;DHT22;944;51.574;6.980;2023-03-01T14:29:56;5.80;99.90
1888;DHT22;944;51.574;6.980;2023-03-01T14:32:54;5.80;99.90
1888;DHT22;944;51.574;6.980;2023-03-01T14:35:24;5.80;99.90
1888;DHT22;944;51.574;6.980;2023-03-01T14:41:44;5.90;99.90
1888;DHT22;944;51.574;6.980;2023-03-01T14:44:18;5.90;99.90
1888;DHT22;944;51.574;6.980;2023-03-01T14:47:03;5.90;99.90
1888;DHT22;944;51.574;6.980;2023-03-01T14:53:24;5.90;99.90
1888;DHT22;944;51.574;6.980;2023-03-01T14:55:55;5.90;99.90
1888;DHT22;944;51.574;6.980;2023-03-01T14:58:26;5.90;99.90
1888;DHT22;944;51.574;6.980;2023-03-01T15:04:34;5.90;99.90
1888;DHT22;944;51.574;6.980;2023-03-01T15:07:01;5.80;99.90
1888;DHT22;944;51.574;6.980;2023-03-01T15:13:19;5.90;99.90
1888;DHT22;944;51.574;6.980;2023-03-01T15:15:59;5.80;99.90
1888;DHT22;944;51.574;6.980;2023-03-01T15:18:32;5.90;99.90
1888;DHT22;944;51.574;6.980;2023-03-01T15:24:47;5.80;99.90
1888;DHT22;944;51.574;6.980;2023-03-01T15:27:20;5.80;99.90
1888;DHT22;944;51.574;6.980;2023-03-01T15:32:31;5.80;99.90
1888;DHT22;944;51.574;6.980;2023-03-01T15:35:32;5.80;99.90
1888;DHT22;944;51.574;6.980;2023-03-01T15:42:10;5.80;99.90
1888;DHT22;944;51.574;6.980;2023-03-01T15:45:49;5.60;99.90
1888;DHT22;944;51.574;6.980;2023-03-01T15:48:43;5.80;99.90
1888;DHT22;944;51.574;6.980;2023-03-01T15:51:44;5.70;1.00
1888;DHT22;944;51.574;6.980;2023-03-01T15:54:30;5.70;99.90
1888;DHT22;944;51.574;6.980;2023-03-01T15:56:58;5.70;1.00
1888;DHT22;944;51.574;6.980;2023-03-01T15:59:25;5.70;99.90
1888;DHT22;944;51.574;6.980;2023-03-01T16:02:21;5.70;22.30
1888;DHT22;944;51.574;6.980;2023-03-01T16:04:55;5.70;99.90
1888;DHT22;944;51.574;6.980;2023-03-01T16:07:22;5.70;39.80
1888;DHT22;944;51.574;6.980;2023-03-01T16:09:55;5.70;99.90
1888;DHT22;944;51.574;6.980;2023-03-01T16:16:21;5.60;1.00
1888;DHT22;944;51.574;6.980;2023-03-01T16:18:51;5.50;99.90
1888;DHT22;944;51.574;6.980;2023-03-01T16:21:25;5.50;99.90
1888;DHT22;944;51.574;6.980;2023-03-01T16:23:57;5.50;99.90
1888;DHT22;944;51.574;6.980;2023-03-01T16:26:55;5.50;99.90
1888;DHT22;944;51.574;6.980;2023-03-01T16:29:27;5.40;99.90
1888;DHT22;944;51.574;6.980;2023-03-01T16:31:56;5.40;99.90
1888;DHT22;944;51.574;6.980;2023-03-01T16:34:32;5.40;1.00
1888;DHT22;944;51.574;6.980;2023-03-01T16:37:01;5.40;16.40
1888;DHT22;944;51.574;6.980;2023-03-01T16:39:34;5.30;99.90
1888;DHT22;944;51.574;6.980;2023-03-01T16:45:47;5.30;99.90
1888;DHT22;944;51.574;6.980;2023-03-01T16:48:23;5.30;1.00
1888;DHT22;944;51.574;6.980;2023-03-01T16:51:02;5.20;99.90
1888;DHT22;944;51.574;6.980;2023-03-01T16:53:35;5.10;99.90
1888;DHT22;944;51.574;6.980;2023-03-01T16:56:05;5.30;99.90
1888;DHT22;944;51.574;6.980;2023-03-01T16:58:36;5.10;99.90
1888;DHT22;944;51.574;6.980;2023-03-01T17:01:07;5.00;99.90
1888;DHT22;944;51.574;6.980;2023-03-01T17:03:51;5.00;99.90
1888;DHT22;944;51.574;6.980;2023-03-01T17:06:21;5.00;99.90
1888;DHT22;944;51.574;6.980;2023-03-01T17:08:52;4.90;99.90
1888;DHT22;944;51.574;6.980;2023-03-01T17:11:21;4.90;1.00
1888;DHT22;944;51.574;6.980;2023-03-01T17:13:54;4.90;1.00
1888;DHT22;944;51.574;6.980;2023-03-01T17:16:21;4.80;99.90
1888;DHT22;944;51.574;6.980;2023-03-01T17:18:53;4.60;99.90
1888;DHT22;944;51.574;6.980;2023-03-01T17:32:37;4.60;99.90
1888;DHT22;944;51.574;6.980;2023-03-01T17:35:29;4.50;99.90
1888;DHT22;944;51.574;6.980;2023-03-01T17:38:19;4.50;1.00
1888;DHT22;944;51.574;6.980;2023-03-01T19:19:26;3.20;99.90
